Time;durP1;ratioP1;P1;durP2;ratioP2;P2;SDS_P1;SDS_P2;PMS_P1;PMS_P2;Temp;Humidity;BMP_temperature;BMP_pressure;BME280_temperature;BME280_humidity;BME280_pressure;Samples;Min_cycle;Max_cycle;Signal;HPM_P1;HPM_P2
2021/08/13 00:00:16;;;;;;;8.27;1.73;;;28.50;50.90;;;;;;5005334;28;20046;-50
2021/08/13 00:02:44;;;;;;;3.40;1.50;;;28.50;50.90;;;;;;4994404;28;20035;-50
2021/08/13 00:05:12;;;;;;;1.90;0.93;;;28.50;50.90;;;;;;5009853;28;20041;-51
2021/08/13 00:07:39;;;;;;;3.28;2.13;;;28.40;50.90;;;;;;5007144;28;20042;-46
2021/08/13 00:10:08;;;;;;;1.45;1.08;;;28.40;50.40;;;;;;5005431;28;20509;-49
2021/08/13 00:12:35;;;;;;;1.33;1.08;;;28.30;50.80;;;;;;5009606;28;20046;-46
2021/08/13 00:15:02;;;;;;;2.15;0.90;;;28.30;50.80;;;;;;5006992;28;23217;-47
2021/08/13 00:17:29;;;;;;;1.02;0.75;;;28.30;50.90;;;;;;4994592;28;20133;-49
2021/08/13 00:19:58;;;;;;;4.90;1.40;;;28.30;50.90;;;;;;5008218;28;20061;-48
2021/08/13 00:22:25;;;;;;;3.63;1.13;;;28.30;50.90;;;;;;5006981;28;20729;-48
2021/08/13 00:24:52;;;;;;;4.57;2.05;;;28.20;50.80;;;;;;5009226;28;20042;-49
2021/08/13 00:27:20;;;;;;;1.45;1.35;;;28.20;50.60;;;;;;5009326;28;20065;-48
2021/08/13 00:29:47;;;;;;;10.45;1.98;;;28.20;50.60;;;;;;5008048;28;20053;-49
2021/08/13 00:32:14;;;;;;;1.52;1.33;;;28.10;50.40;;;;;;4993466;28;20054;-49
2021/08/13 00:34:43;;;;;;;2.75;1.58;;;28.10;50.40;;;;;;4992350;28;20038;-48
2021/08/13 00:37:11;;;;;;;2.42;1.35;;;28.10;50.50;;;;;;5003377;28;20037;-48
2021/08/13 00:39:38;;;;;;;2.70;1.58;;;28.10;50.50;;;;;;4991313;28;20408;-48
2021/08/13 00:42:07;;;;;;;5.40;2.05;;;28.10;50.60;;;;;;4987204;28;20046;-50
2021/08/13 00:44:37;;;;;;;2.05;1.42;;;28.00;50.50;;;;;;4991140;28;20584;-48
2021/08/13 00:47:05;;;;;;;0.95;0.95;;;28.00;50.50;;;;;;5008681;28;20160;-49
2021/08/13 00:49:58;;;;;;;1.70;1.42;;;28.00;50.50;;;;;;4988195;28;20053;-50
2021/08/13 00:52:34;;;;;;;2.87;1.33;;;27.90;50.50;;;;;;5004824;28;20038;-51
2021/08/13 00:55:02;;;;;;;6.35;1.00;;;27.90;50.50;;;;;;4990066;28;20053;-49
2021/08/13 00:57:58;;;;;;;4.32;1.42;;;27.90;50.50;;;;;;4997033;28;20042;-50
2021/08/13 01:00:45;;;;;;;2.70;0.70;;;27.80;50.50;;;;;;4997486;28;20057;-51
2021/08/13 01:03:12;;;;;;;3.10;1.42;;;27.80;50.50;;;;;;4996257;28;20400;-47
2021/08/13 01:05:43;;;;;;;2.00;1.50;;;27.80;50.50;;;;;;4990828;28;20057;-50
2021/08/13 01:08:12;;;;;;;1.23;0.80;;;27.70;50.50;;;;;;4992289;28;20041;-52
2021/08/13 01:10:47;;;;;;;1.98;1.52;;;27.70;50.50;;;;;;4993923;28;20666;-50
2021/08/13 01:13:21;;;;;;;2.23;1.80;;;27.70;50.50;;;;;;4991632;28;20045;-51
2021/08/13 01:15:57;;;;;;;1.05;0.95;;;27.70;50.50;;;;;;5004017;28;20069;-50
2021/08/13 01:18:30;;;;;;;1.08;1.08;;;27.60;50.50;;;;;;4990972;28;20056;-47
2021/08/13 01:21:43;;;;;;;1.50;1.40;;;27.60;50.50;;;;;;5004696;28;20053;-48
2021/08/13 01:24:17;;;;;;;1.67;1.15;;;27.60;50.40;;;;;;4974558;28;20054;-48
2021/08/13 01:26:49;;;;;;;1.45;1.10;;;27.50;50.40;;;;;;4986238;28;20038;-49
2021/08/13 01:29:29;;;;;;;2.17;1.40;;;27.50;50.40;;;;;;4991022;28;20038;-50
2021/08/13 01:32:20;;;;;;;1.85;1.75;;;27.50;50.30;;;;;;4975056;28;20064;-53
2021/08/13 01:34:52;;;;;;;1.40;0.80;;;27.50;50.40;;;;;;4972544;28;20046;-48
2021/08/13 01:37:22;;;;;;;2.88;1.52;;;27.40;50.30;;;;;;4978688;28;20096;-47
2021/08/13 01:40:01;;;;;;;1.60;1.50;;;27.40;50.40;;;;;;4986397;28;20054;-50
2021/08/13 01:42:32;;;;;;;1.45;0.90;;;27.40;50.40;;;;;;4995402;28;20041;-51
2021/08/13 01:45:04;;;;;;;1.27;1.17;;;27.30;50.30;;;;;;4993645;28;20042;-50
2021/08/13 01:47:37;;;;;;;2.63;1.35;;;27.30;50.30;;;;;;5006878;28;20476;-48
2021/08/13 01:50:06;;;;;;;3.63;2.03;;;27.30;50.30;;;;;;4990918;28;20042;-50
2021/08/13 01:52:34;;;;;;;1.65;1.55;;;27.30;50.20;;;;;;4993139;28;20050;-50
2021/08/13 01:55:02;;;;;;;7.05;1.13;;;27.20;50.10;;;;;;4995208;28;20061;-46
2021/08/13 01:57:35;;;;;;;0.90;0.80;;;27.20;50.10;;;;;;4995584;28;20567;-48
2021/08/13 02:00:04;;;;;;;1.98;1.45;;;27.20;50.20;;;;;;4989361;28;20042;-51
2021/08/13 02:02:32;;;;;;;1.30;1.00;;;27.20;50.20;;;;;;4992282;28;20042;-45
2021/08/13 02:05:03;;;;;;;2.67;1.48;;;27.10;50.10;;;;;;5006912;28;20085;-48
2021/08/13 02:07:32;;;;;;;0.82;0.80;;;27.10;50.10;;;;;;5004808;28;20056;-49
2021/08/13 02:09:59;;;;;;;1.10;0.80;;;27.10;50.10;;;;;;5001633;28;20543;-50
2021/08/13 02:12:26;;;;;;;0.77;0.77;;;27.10;50.10;;;;;;4989803;28;20042;-46
2021/08/13 02:14:57;;;;;;;0.98;0.93;;;27.10;50.20;;;;;;4990817;28;20046;-50
2021/08/13 02:17:29;;;;;;;1.33;1.30;;;27.10;50.20;;;;;;5003707;28;20121;-45
2021/08/13 02:20:05;;;;;;;1.75;1.10;;;27.00;50.20;;;;;;4973027;28;20105;-46
2021/08/13 02:22:34;;;;;;;;;;;27.00;50.30;;;;;;4991817;28;20204;-52
2021/08/13 02:25:01;;;;;;;4.05;1.42;;;26.90;50.20;;;;;;5003781;28;19926;-52
2021/08/13 02:27:30;;;;;;;3.03;1.58;;;26.90;50.40;;;;;;4983129;28;20162;-47
2021/08/13 02:29:58;;;;;;;1.45;1.33;;;26.90;50.30;;;;;;4985452;28;20126;-46
2021/08/13 02:32:29;;;;;;;2.67;1.55;;;26.90;50.30;;;;;;4989463;28;20169;-45
2021/08/13 02:34:57;;;;;;;1.90;1.17;;;26.90;50.30;;;;;;4973929;28;20260;-50
2021/08/13 02:37:38;;;;;;;2.88;1.30;;;26.90;50.40;;;;;;5001787;28;20129;-47
2021/08/13 02:40:09;;;;;;;2.40;1.20;;;26.80;50.30;;;;;;5002028;28;20129;-51
2021/08/13 02:42:39;;;;;;;1.13;0.90;;;26.80;50.40;;;;;;4989319;28;20057;-47
2021/08/13 02:45:09;;;;;;;1.08;1.00;;;26.80;50.40;;;;;;4982108;28;20050;-51
2021/08/13 02:47:41;;;;;;;1.70;1.45;;;26.80;50.40;;;;;;4990600;28;20088;-51
2021/08/13 02:50:11;;;;;;;2.53;1.08;;;26.80;50.40;;;;;;4973752;28;20585;-50
2021/08/13 02:52:46;;;;;;;2.88;1.10;;;26.80;50.40;;;;;;4971247;28;20546;-51
2021/08/13 02:55:16;;;;;;;3.63;1.30;;;26.80;50.40;;;;;;4977276;28;20113;-52
2021/08/13 02:57:48;;;;;;;1.35;1.25;;;26.80;50.40;;;;;;4996308;28;20113;-47
2021/08/13 03:00:16;;;;;;;2.55;1.17;;;26.70;50.40;;;;;;4982134;28;20038;-48
2021/08/13 03:02:48;;;;;;;2.97;1.05;;;26.70;50.40;;;;;;5005004;28;20121;-51
2021/08/13 03:05:16;;;;;;;2.15;0.95;;;26.70;50.50;;;;;;4990330;28;20037;-49
2021/08/13 03:07:45;;;;;;;3.42;1.25;;;26.70;50.50;;;;;;4973850;28;20050;-48
2021/08/13 03:10:13;;;;;;;3.05;1.38;;;26.70;50.50;;;;;;5001995;28;20530;-47
2021/08/13 03:12:41;;;;;;;3.05;1.25;;;26.60;50.50;;;;;;4987778;28;20474;-49
2021/08/13 03:15:10;;;;;;;0.95;0.93;;;26.60;50.50;;;;;;4988537;28;20037;-47
2021/08/13 03:17:41;;;;;;;1.17;1.08;;;26.60;50.60;;;;;;5004879;28;20045;-50
2021/08/13 03:20:09;;;;;;;2.08;1.52;;;26.60;50.60;;;;;;4973062;28;20126;-47
2021/08/13 03:22:47;;;;;;;4.55;1.17;;;26.60;50.60;;;;;;4986362;28;20148;-45
2021/08/13 03:25:14;;;;;;;1.20;1.10;;;26.60;50.60;;;;;;5007354;28;20050;-55
2021/08/13 03:27:42;;;;;;;1.02;0.80;;;26.50;50.50;;;;;;5000983;28;20548;-53
2021/08/13 03:30:11;;;;;;;3.03;0.90;;;26.60;50.50;;;;;;4987989;28;20038;-51
2021/08/13 03:32:40;;;;;;;2.00;1.10;;;26.50;50.40;;;;;;5001215;28;20116;-50
2021/08/13 03:35:09;;;;;;;1.35;1.13;;;26.50;50.50;;;;;;4988283;28;20042;-49
2021/08/13 03:37:37;;;;;;;1.35;1.25;;;26.50;50.40;;;;;;5002086;28;20103;-53
2021/08/13 03:40:07;;;;;;;1.92;1.05;;;26.50;50.40;;;;;;4980953;28;20801;-46
2021/08/13 03:42:36;;;;;;;1.40;1.20;;;26.50;50.30;;;;;;4984245;28;20068;-48
2021/08/13 03:45:04;;;;;;;1.10;1.00;;;26.40;50.20;;;;;;5005931;28;20038;-46
2021/08/13 03:47:31;;;;;;;4.07;1.52;;;26.40;50.30;;;;;;4984968;28;20062;-51
2021/08/13 03:49:58;;;;;;;1.50;0.98;;;26.40;50.30;;;;;;4986762;28;20100;-51
2021/08/13 03:52:26;;;;;;;0.80;0.80;;;26.40;50.30;;;;;;5001748;28;20403;-50
2021/08/13 03:54:53;;;;;;;1.30;0.82;;;26.40;50.20;;;;;;4988585;28;20103;-51
2021/08/13 03:57:26;;;;;;;3.38;1.08;;;26.40;50.20;;;;;;4988459;28;20062;-49
2021/08/13 03:59:54;;;;;;;1.95;0.82;;;26.40;50.20;;;;;;4984086;28;20503;-48
2021/08/13 04:02:21;;;;;;;1.75;0.80;;;26.30;50.10;;;;;;4987980;28;20042;-50
2021/08/13 04:04:48;;;;;;;0.50;0.47;;;26.30;50.20;;;;;;4972818;28;20047;-50
2021/08/13 04:07:15;;;;;;;0.82;0.82;;;26.30;50.10;;;;;;5002795;28;20046;-52
2021/08/13 04:09:43;;;;;;;3.38;0.88;;;26.30;50.10;;;;;;4971851;28;20042;-52
2021/08/13 04:12:15;;;;;;;4.57;0.85;;;26.30;50.10;;;;;;4983768;28;20073;-49
2021/08/13 04:14:43;;;;;;;1.45;1.27;;;26.30;50.10;;;;;;4988180;28;20042;-50
2021/08/13 04:17:10;;;;;;;1.25;0.70;;;26.20;50.00;;;;;;5004581;28;20518;-48
2021/08/13 04:19:37;;;;;;;1.88;1.77;;;26.20;50.00;;;;;;5003084;28;20120;-48
2021/08/13 04:22:06;;;;;;;0.98;0.82;;;26.20;50.10;;;;;;4998357;28;20048;-50
2021/08/13 04:24:34;;;;;;;1.60;0.70;;;26.20;50.10;;;;;;4985656;28;20104;-51
2021/08/13 04:27:01;;;;;;;1.88;0.98;;;26.20;50.10;;;;;;4983531;28;20065;-51
2021/08/13 04:29:28;;;;;;;3.40;0.77;;;26.20;50.10;;;;;;4987398;28;20428;-49
2021/08/13 04:31:57;;;;;;;3.42;0.93;;;26.10;50.00;;;;;;4990089;28;20046;-48
2021/08/13 04:34:24;;;;;;;1.60;0.70;;;26.10;50.10;;;;;;5001262;28;20569;-45
2021/08/13 04:36:51;;;;;;;0.82;0.70;;;26.10;50.00;;;;;;4979024;28;20435;-51
2021/08/13 04:39:18;;;;;;;4.78;0.73;;;26.10;50.00;;;;;;4993042;28;20050;-47
2021/08/13 04:41:45;;;;;;;1.30;1.20;;;26.10;50.00;;;;;;4996491;28;20053;-47
2021/08/13 04:44:13;;;;;;;2.05;1.10;;;26.10;50.10;;;;;;4992648;28;20530;-52
2021/08/13 04:46:41;;;;;;;2.60;0.63;;;26.10;50.10;;;;;;4988740;28;20073;-48
2021/08/13 04:49:09;;;;;;;1.33;0.80;;;26.10;50.10;;;;;;4980534;28;20038;-48
2021/08/13 04:51:36;;;;;;;2.15;0.70;;;26.00;50.00;;;;;;4996718;28;20038;-47
2021/08/13 04:54:04;;;;;;;2.58;0.75;;;26.00;50.10;;;;;;4964272;28;20535;-48
2021/08/13 04:56:31;;;;;;;2.83;0.85;;;26.00;50.10;;;;;;5000863;28;20569;-49
2021/08/13 04:58:58;;;;;;;1.33;1.23;;;26.00;50.10;;;;;;5001136;28;20039;-48
2021/08/13 05:01:42;;;;;;;6.60;0.88;;;26.00;50.20;;;;;;5007755;28;20050;-51
2021/08/13 05:04:11;;;;;;;1.33;0.70;;;25.90;50.10;;;;;;5000575;28;20045;-47
2021/08/13 05:06:38;;;;;;;2.70;0.80;;;25.90;50.20;;;;;;4988357;28;20038;-51
2021/08/13 05:09:05;;;;;;;1.55;1.05;;;25.90;50.30;;;;;;4983147;28;20071;-50
2021/08/13 05:11:32;;;;;;;3.65;1.02;;;25.90;50.30;;;;;;4968968;28;20052;-51
2021/08/13 05:13:59;;;;;;;3.70;1.13;;;25.90;50.40;;;;;;5001748;28;20039;-49
2021/08/13 05:16:26;;;;;;;1.38;0.88;;;25.90;50.40;;;;;;4986563;28;20031;-48
2021/08/13 05:18:54;;;;;;;2.45;1.05;;;25.90;50.40;;;;;;4986921;28;20362;-45
2021/08/13 05:21:22;;;;;;;3.47;3.15;;;25.80;50.40;;;;;;4970834;28;20128;-47
2021/08/13 05:23:50;;;;;;;4.25;2.38;;;25.90;50.40;;;;;;4984483;28;20045;-50
2021/08/13 05:26:17;;;;;;;4.47;1.30;;;25.80;50.40;;;;;;4989795;28;20052;-50
2021/08/13 05:28:45;;;;;;;1.05;0.82;;;25.80;50.40;;;;;;4990216;28;20046;-47
2021/08/13 05:31:17;;;;;;;10.80;1.55;;;25.80;50.40;;;;;;4985364;28;20055;-48
2021/08/13 05:33:44;;;;;;;5.55;1.17;;;25.80;50.40;;;;;;4982025;28;20039;-49
2021/08/13 05:36:15;;;;;;;7.53;1.08;;;25.80;50.50;;;;;;4982700;28;20030;-48
2021/08/13 05:38:44;;;;;;;3.15;0.80;;;25.80;50.50;;;;;;4995027;28;20121;-48
2021/08/13 05:41:12;;;;;;;3.00;0.50;;;25.70;50.40;;;;;;4971482;28;20039;-49
2021/08/13 05:43:40;;;;;;;1.25;1.15;;;25.80;50.40;;;;;;4993893;28;20042;-47
2021/08/13 05:46:08;;;;;;;3.10;0.93;;;25.70;50.30;;;;;;4982481;28;20515;-46
2021/08/13 05:48:35;;;;;;;3.80;0.73;;;25.70;50.30;;;;;;4986907;28;20101;-47
2021/08/13 05:51:03;;;;;;;3.67;0.77;;;25.70;50.30;;;;;;4997950;28;20126;-45
2021/08/13 05:53:31;;;;;;;0.65;0.52;;;25.70;50.30;;;;;;4984578;28;20126;-46
2021/08/13 05:56:00;;;;;;;2.30;0.95;;;25.70;50.30;;;;;;4985475;28;20504;-46
2021/08/13 05:58:27;;;;;;;0.60;0.40;;;25.70;50.40;;;;;;4984716;28;20642;-46
2021/08/13 06:00:56;;;;;;;2.80;1.55;;;25.70;50.40;;;;;;4982457;28;20042;-45
2021/08/13 06:03:23;;;;;;;3.72;1.23;;;25.70;50.40;;;;;;4980911;28;20050;-44
2021/08/13 06:05:52;;;;;;;4.03;0.70;;;25.70;50.40;;;;;;5001688;28;20092;-45
2021/08/13 06:08:21;;;;;;;2.53;0.60;;;25.70;50.50;;;;;;4985246;28;20039;-49
2021/08/13 06:10:49;;;;;;;1.08;0.98;;;25.70;50.50;;;;;;4984204;28;20042;-49
2021/08/13 06:13:18;;;;;;;1.77;1.02;;;25.70;50.40;;;;;;4983327;28;20136;-47
2021/08/13 06:15:47;;;;;;;5.30;1.15;;;25.70;50.40;;;;;;4984752;28;20420;-47
2021/08/13 06:18:15;;;;;;;0.73;0.57;;;25.70;50.40;;;;;;4998276;28;20129;-48
2021/08/13 06:20:42;;;;;;;2.38;0.70;;;25.70;50.40;;;;;;4998480;28;20709;-47
2021/08/13 06:23:13;;;;;;;5.82;0.73;;;25.70;50.50;;;;;;4985375;28;20420;-48
2021/08/13 06:25:41;;;;;;;3.50;0.68;;;25.60;50.30;;;;;;5003632;28;20126;-50
2021/08/13 06:28:08;;;;;;;2.55;0.60;;;25.70;50.30;;;;;;4978462;28;20038;-48
2021/08/13 06:30:37;;;;;;;1.23;0.82;;;25.70;50.30;;;;;;4981725;28;20058;-50
2021/08/13 06:33:05;;;;;;;2.85;0.80;;;25.70;50.40;;;;;;4997790;28;20050;-52
2021/08/13 06:35:32;;;;;;;2.75;0.55;;;25.70;50.40;;;;;;4983703;28;20050;-48
2021/08/13 06:38:01;;;;;;;7.60;1.48;;;25.70;50.20;;;;;;4985172;28;20181;-50
2021/08/13 06:40:32;;;;;;;2.47;0.52;;;25.70;50.20;;;;;;4989716;28;20043;-48
2021/08/13 06:43:00;;;;;;;3.42;0.70;;;25.70;50.20;;;;;;4996931;28;20054;-47
2021/08/13 06:45:29;;;;;;;1.15;0.82;;;25.70;50.10;;;;;;4985862;28;20046;-51
2021/08/13 06:48:04;;;;;;;2.50;0.82;;;25.70;50.10;;;;;;4997868;28;20059;-51
2021/08/13 06:50:31;;;;;;;0.82;0.63;;;25.70;50.10;;;;;;4985996;28;20080;-50
2021/08/13 06:52:58;;;;;;;3.03;0.80;;;25.70;50.10;;;;;;4986389;28;20512;-45
2021/08/13 06:55:25;;;;;;;4.10;0.85;;;25.70;50.00;;;;;;4990247;28;20047;-53
2021/08/13 06:57:57;;;;;;;0.43;0.30;;;25.70;50.10;;;;;;5000325;28;20133;-46
2021/08/13 07:00:27;;;;;;;2.55;0.40;;;25.70;50.10;;;;;;4985924;28;20050;-46
2021/08/13 07:02:55;;;;;;;0.57;0.40;;;25.70;50.00;;;;;;4984444;28;20149;-48
2021/08/13 07:05:24;;;;;;;5.05;1.35;;;25.70;50.00;;;;;;5000914;28;20046;-46
2021/08/13 07:07:52;;;;;;;1.98;0.60;;;25.80;50.10;;;;;;5000511;28;20092;-53
2021/08/13 07:10:20;;;;;;;7.20;0.50;;;25.70;50.00;;;;;;4976698;28;20062;-47
2021/08/13 07:12:47;;;;;;;5.18;0.30;;;25.80;50.10;;;;;;4985486;28;20042;-49
2021/08/13 07:15:14;;;;;;;0.95;0.82;;;25.80;50.10;;;;;;4984524;28;20437;-47
2021/08/13 07:17:46;;;;;;;9.57;1.15;;;25.80;50.10;;;;;;4982723;28;20057;-46
2021/08/13 07:20:21;;;;;;;6.85;1.88;;;25.80;50.10;;;;;;4998325;28;20054;-50
2021/08/13 07:22:52;;;;;;;4.85;0.90;;;25.80;50.10;;;;;;4963938;28;20042;-45
2021/08/13 07:25:20;;;;;;;3.65;2.20;;;25.80;50.00;;;;;;4980636;28;20039;-49
2021/08/13 07:27:47;;;;;;;0.60;0.60;;;25.80;50.00;;;;;;4966954;28;20054;-48
2021/08/13 07:30:15;;;;;;;1.42;0.80;;;25.80;49.80;;;;;;5001328;28;20065;-47
2021/08/13 07:32:44;;;;;;;1.63;0.60;;;25.90;49.80;;;;;;4982300;28;20052;-48
2021/08/13 07:35:12;;;;;;;3.08;0.20;;;25.80;49.70;;;;;;5004277;28;20451;-47
2021/08/13 07:37:47;;;;;;;8.25;0.65;;;25.90;49.70;;;;;;4999664;28;20042;-52
2021/08/13 07:40:16;;;;;;;0.88;0.70;;;25.90;49.70;;;;;;4985250;28;20039;-49
2021/08/13 07:42:43;;;;;;;6.78;0.90;;;25.90;49.60;;;;;;5001822;28;20050;-46
2021/08/13 07:45:13;;;;;;;2.70;0.68;;;25.90;49.60;;;;;;4987515;28;20645;-48
2021/08/13 07:47:40;;;;;;;1.85;0.63;;;25.90;49.50;;;;;;5002699;28;20881;-44
2021/08/13 07:50:10;;;;;;;3.35;0.50;;;25.90;49.40;;;;;;4988072;28;20132;-47
2021/08/13 07:52:39;;;;;;;0.75;0.63;;;25.90;49.40;;;;;;4988733;28;20045;-50
2021/08/13 07:55:07;;;;;;;3.20;0.52;;;25.90;49.30;;;;;;5005567;28;20121;-48
2021/08/13 07:57:36;;;;;;;1.67;0.20;;;26.00;49.30;;;;;;4987491;28;20069;-46
2021/08/13 08:00:07;;;;;;;0.73;0.50;;;26.00;49.30;;;;;;4987553;28;20052;-44
2021/08/13 08:02:49;;;;;;;1.20;1.20;;;26.00;49.30;;;;;;5003142;28;20046;-50
2021/08/13 08:05:16;;;;;;;0.82;0.57;;;26.00;49.30;;;;;;5004991;28;20041;-48
2021/08/13 08:07:44;;;;;;;2.03;0.50;;;26.00;49.30;;;;;;5005944;28;20073;-48
2021/08/13 08:10:11;;;;;;;2.13;0.40;;;26.00;49.30;;;;;;5004645;28;20800;-49
2021/08/13 08:12:40;;;;;;;0.77;0.30;;;26.10;49.40;;;;;;5005158;28;20052;-48
2021/08/13 08:15:08;;;;;;;2.75;0.20;;;26.10;49.30;;;;;;5006002;28;20033;-52
2021/08/13 08:17:37;;;;;;;3.47;0.43;;;26.10;49.30;;;;;;5008998;28;20515;-50
2021/08/13 08:20:05;;;;;;;1.75;0.32;;;26.10;49.30;;;;;;5003740;28;20064;-51
2021/08/13 08:22:32;;;;;;;1.75;0.40;;;26.10;49.20;;;;;;5010611;28;20045;-48
2021/08/13 08:24:59;;;;;;;1.42;0.60;;;26.20;49.20;;;;;;5005467;28;20040;-46
2021/08/13 08:27:27;;;;;;;1.40;0.55;;;26.20;49.20;;;;;;5008868;28;20053;-50
2021/08/13 08:29:55;;;;;;;0.80;0.77;;;26.20;49.20;;;;;;5008552;28;20134;-53
2021/08/13 08:32:23;;;;;;;0.95;0.60;;;26.20;49.10;;;;;;5004242;28;20045;-51
2021/08/13 08:34:50;;;;;;;1.27;1.20;;;26.20;49.00;;;;;;5009614;28;20041;-53
2021/08/13 08:37:18;;;;;;;1.30;0.52;;;26.20;49.00;;;;;;5002422;28;20415;-53
2021/08/13 08:39:47;;;;;;;4.22;1.02;;;26.20;49.00;;;;;;5009014;28;20133;-53
2021/08/13 08:42:16;;;;;;;0.50;0.50;;;26.30;49.10;;;;;;5008942;28;20048;-53
2021/08/13 08:44:43;;;;;;;2.92;0.52;;;26.30;49.10;;;;;;5002986;28;20154;-52
2021/08/13 08:47:13;;;;;;;3.92;1.05;;;26.30;49.10;;;;;;5000767;28;20586;-51
2021/08/13 08:49:42;;;;;;;2.97;1.27;;;26.30;49.10;;;;;;4999260;28;20034;-52
2021/08/13 08:52:10;;;;;;;4.57;1.50;;;26.30;49.10;;;;;;5008144;28;20052;-52
2021/08/13 08:54:38;;;;;;;4.55;0.98;;;26.30;49.00;;;;;;5008505;28;20535;-50
2021/08/13 08:57:07;;;;;;;4.47;0.50;;;26.40;49.00;;;;;;5007699;28;20049;-50
2021/08/13 08:59:34;;;;;;;3.33;0.45;;;26.40;49.70;;;;;;5006906;28;20125;-49
2021/08/13 09:02:02;;;;;;;2.25;0.28;;;26.40;49.20;;;;;;5008047;28;20054;-53
2021/08/13 09:04:30;;;;;;;4.68;0.70;;;26.50;49.20;;;;;;5010235;28;20506;-51
2021/08/13 09:06:57;;;;;;;1.83;0.80;;;26.50;49.10;;;;;;5005683;28;20042;-50
2021/08/13 09:09:25;;;;;;;3.80;0.70;;;26.50;49.00;;;;;;5007068;28;20054;-50
2021/08/13 09:11:55;;;;;;;0.50;0.30;;;26.50;49.00;;;;;;5007204;28;20045;-60
2021/08/13 09:14:22;;;;;;;1.83;0.30;;;26.50;49.10;;;;;;5008451;28;20064;-61
2021/08/13 09:17:01;;;;;;;2.75;0.30;;;26.50;49.00;;;;;;5008509;28;20096;-60
2021/08/13 09:19:41;;;;;;;4.53;1.20;;;26.60;48.90;;;;;;5008217;28;20038;-61
2021/08/13 09:22:10;;;;;;;2.15;0.52;;;26.60;48.70;;;;;;5008683;28;20074;-61
2021/08/13 09:24:40;;;;;;;2.20;0.85;;;26.60;48.70;;;;;;5007633;28;20034;-60
2021/08/13 09:27:18;;;;;;;1.75;1.35;;;26.60;48.50;;;;;;5002549;28;20045;-60
2021/08/13 09:30:13;;;;;;;1.20;0.60;;;26.70;48.50;;;;;;4990315;28;20038;-60
2021/08/13 09:32:57;;;;;;;3.03;1.23;;;26.70;48.30;;;;;;4995656;28;20208;-60
2021/08/13 09:35:35;;;;;;;1.23;0.50;;;26.60;48.20;;;;;;5007225;28;20161;-60
2021/08/13 09:38:04;;;;;;;0.90;0.80;;;26.70;48.20;;;;;;5007331;28;20072;-60
2021/08/13 09:40:38;;;;;;;0.50;0.35;;;26.70;48.20;;;;;;5009320;28;20042;-60
2021/08/13 09:43:06;;;;;;;0.65;0.28;;;26.70;48.10;;;;;;5007237;28;20037;-60
2021/08/13 09:45:34;;;;;;;2.28;0.50;;;26.70;48.10;;;;;;5007678;28;20052;-61
2021/08/13 09:48:07;;;;;;;1.15;0.68;;;26.70;47.90;;;;;;5003295;28;20038;-61
2021/08/13 09:50:37;;;;;;;2.05;0.20;;;26.80;47.80;;;;;;4987698;28;20044;-61
2021/08/13 09:53:12;;;;;;;1.73;0.50;;;26.80;47.70;;;;;;5006802;28;20057;-60
2021/08/13 09:55:40;;;;;;;1.95;1.42;;;26.80;47.60;;;;;;5004431;28;20053;-60
2021/08/13 09:58:09;;;;;;;2.70;1.08;;;26.80;47.60;;;;;;5004546;28;20046;-60
2021/08/13 10:00:45;;;;;;;0.73;0.45;;;26.90;47.60;;;;;;4982375;28;20038;-61
2021/08/13 10:03:13;;;;;;;2.58;0.77;;;26.90;47.40;;;;;;5000503;28;20038;-60
2021/08/13 10:05:42;;;;;;;1.63;0.63;;;26.90;47.40;;;;;;5004381;28;20038;-60
2021/08/13 10:08:10;;;;;;;1.77;0.57;;;26.90;47.40;;;;;;4992115;28;20042;-62
2021/08/13 10:10:38;;;;;;;0.45;0.40;;;26.90;47.40;;;;;;4974309;28;20046;-60
2021/08/13 10:13:08;;;;;;;1.65;0.75;;;27.00;47.40;;;;;;4990430;28;20566;-61
2021/08/13 10:15:44;;;;;;;0.50;0.40;;;27.00;47.30;;;;;;4987260;28;20064;-60
2021/08/13 10:18:18;;;;;;;2.67;0.60;;;27.10;47.40;;;;;;5000731;28;20041;-60
2021/08/13 10:20:52;;;;;;;2.50;0.40;;;27.10;47.40;;;;;;4987792;28;20048;-60
2021/08/13 10:23:23;;;;;;;1.85;0.70;;;27.10;47.50;;;;;;5006597;28;20420;-62
2021/08/13 10:25:55;;;;;;;3.03;1.00;;;27.10;48.10;;;;;;4989604;28;20041;-62
2021/08/13 10:28:29;;;;;;;1.90;0.60;;;27.20;47.70;;;;;;5007001;28;20042;-62
2021/08/13 10:31:03;;;;;;;0.75;0.43;;;27.20;47.60;;;;;;4989037;28;20050;-63
2021/08/13 10:33:32;;;;;;;1.25;0.50;;;27.20;47.50;;;;;;4986500;28;20042;-62
2021/08/13 10:36:02;;;;;;;1.85;0.60;;;27.20;47.40;;;;;;4989100;28;20030;-61
2021/08/13 10:38:33;;;;;;;2.55;1.20;;;27.30;47.30;;;;;;4987035;28;20427;-62
2021/08/13 10:41:01;;;;;;;1.48;0.68;;;27.30;47.30;;;;;;4988924;28;20092;-60
2021/08/13 10:43:34;;;;;;;2.72;0.65;;;27.30;47.30;;;;;;5006566;28;20049;-61
2021/08/13 10:46:06;;;;;;;1.98;1.00;;;27.40;47.50;;;;;;4987585;28;20074;-61
2021/08/13 10:48:37;;;;;;;2.70;0.88;;;27.40;47.50;;;;;;4988357;28;20546;-62
2021/08/13 10:51:07;;;;;;;2.45;0.98;;;27.40;47.50;;;;;;5004335;28;20364;-62
2021/08/13 10:53:38;;;;;;;4.65;2.00;;;27.50;47.60;;;;;;4989515;28;20046;-62
2021/08/13 10:56:13;;;;;;;8.50;2.90;;;27.50;47.80;;;;;;4989165;28;20037;-64
2021/08/13 10:58:50;;;;;;;6.60;2.38;;;27.50;48.20;;;;;;4987969;28;20042;-63
2021/08/13 11:01:27;;;;;;;2.45;1.58;;;27.60;48.20;;;;;;4990531;28;20717;-53
2021/08/13 11:04:12;;;;;;;8.38;2.33;;;27.60;48.30;;;;;;4988629;28;20145;-53
2021/08/13 11:06:47;;;;;;;11.23;2.45;;;27.70;48.30;;;;;;5000890;28;20050;-54
2021/08/13 11:09:33;;;;;;;3.13;2.08;;;27.70;48.40;;;;;;4988827;28;20530;-51
2021/08/13 11:12:06;;;;;;;3.13;2.15;;;27.80;48.40;;;;;;4988911;28;20053;-49
2021/08/13 11:14:47;;;;;;;6.22;1.63;;;27.80;48.50;;;;;;5001854;28;20201;-52
2021/08/13 11:17:33;;;;;;;3.28;1.40;;;27.90;48.40;;;;;;4988575;28;20048;-51
2021/08/13 11:20:06;;;;;;;6.25;1.85;;;27.90;48.40;;;;;;4988812;28;20049;-50
2021/08/13 11:22:39;;;;;;;8.90;1.88;;;27.90;48.40;;;;;;4985907;28;20151;-54
2021/08/13 11:25:09;;;;;;;3.65;1.83;;;28.00;48.40;;;;;;5002725;28;20054;-51
2021/08/13 11:27:36;;;;;;;3.28;1.73;;;28.00;48.40;;;;;;5001178;28;20056;-51
2021/08/13 11:30:04;;;;;;;2.30;1.13;;;28.00;48.30;;;;;;5001466;28;20045;-48
2021/08/13 11:32:38;;;;;;;2.60;1.38;;;28.10;48.40;;;;;;4984237;28;20549;-54
2021/08/13 11:35:09;;;;;;;4.63;1.52;;;28.10;48.30;;;;;;4988098;28;20042;-47
2021/08/13 11:37:48;;;;;;;4.20;1.38;;;28.20;48.40;;;;;;4986368;28;20459;-48
2021/08/13 11:40:43;;;;;;;2.80;1.30;;;28.20;48.30;;;;;;4985097;28;20045;-51
2021/08/13 11:43:12;;;;;;;2.15;1.40;;;28.30;48.20;;;;;;4970158;28;20064;-48
2021/08/13 11:45:43;;;;;;;3.03;0.70;;;28.30;48.20;;;;;;4988377;28;20057;-54
2021/08/13 11:48:17;;;;;;;3.33;1.23;;;28.30;48.20;;;;;;5000164;28;20056;-51
2021/08/13 11:50:45;;;;;;;2.13;1.38;;;28.40;48.20;;;;;;4984591;28;20046;-48
2021/08/13 11:53:14;;;;;;;2.28;1.48;;;28.40;48.20;;;;;;5004678;28;20065;-49
2021/08/13 11:55:45;;;;;;;1.67;1.10;;;28.50;48.20;;;;;;4986549;28;20046;-54
2021/08/13 11:58:25;;;;;;;2.15;0.98;;;28.50;48.10;;;;;;5006456;28;20045;-50
2021/08/13 12:01:04;;;;;;;2.92;1.45;;;28.50;48.00;;;;;;4997084;28;20073;-53
2021/08/13 12:03:31;;;;;;;2.65;1.05;;;28.60;48.10;;;;;;4995807;28;20137;-54
2021/08/13 12:06:12;;;;;;;3.72;0.90;;;28.50;48.00;;;;;;4986952;28;20100;-50
2021/08/13 12:08:45;;;;;;;1.08;0.80;;;28.60;48.00;;;;;;5001212;28;20133;-51
2021/08/13 12:11:14;;;;;;;1.25;0.70;;;28.70;48.00;;;;;;4973309;28;20084;-52
2021/08/13 12:13:43;;;;;;;3.03;1.70;;;28.70;48.10;;;;;;4991074;28;20514;-50
2021/08/13 12:16:10;;;;;;;1.10;1.10;;;28.70;48.00;;;;;;4976959;28;20412;-54
2021/08/13 12:18:38;;;;;;;1.23;1.13;;;28.70;48.10;;;;;;4997375;28;20042;-50
2021/08/13 12:21:07;;;;;;;0.70;0.70;;;28.70;47.90;;;;;;5003529;28;20053;-48
2021/08/13 12:23:37;;;;;;;0.93;0.77;;;28.80;47.90;;;;;;5001100;28;20101;-49
2021/08/13 12:26:05;;;;;;;1.35;0.77;;;28.90;47.90;;;;;;5005041;28;20113;-53
2021/08/13 12:28:36;;;;;;;2.60;1.13;;;28.90;47.90;;;;;;4985181;28;20049;-49
2021/08/13 12:31:08;;;;;;;0.88;0.88;;;28.90;47.80;;;;;;4984435;28;20054;-49
2021/08/13 12:33:37;;;;;;;0.65;0.60;;;29.00;47.90;;;;;;4977369;28;20054;-50
2021/08/13 12:36:15;;;;;;;1.30;0.55;;;29.00;47.80;;;;;;4971991;28;20113;-51
2021/08/13 12:38:45;;;;;;;1.05;0.90;;;29.10;47.80;;;;;;4984812;28;20129;-51
2021/08/13 12:41:18;;;;;;;0.80;0.73;;;29.10;47.80;;;;;;4961588;28;20050;-50
2021/08/13 12:43:47;;;;;;;0.98;0.98;;;29.10;47.70;;;;;;4968886;28;20042;-51
2021/08/13 12:46:14;;;;;;;0.85;0.50;;;29.20;47.70;;;;;;4975709;28;20058;-52
2021/08/13 12:48:43;;;;;;;2.15;0.88;;;29.20;47.70;;;;;;4964001;28;20050;-53
2021/08/13 12:51:26;;;;;;;1.17;1.10;;;29.20;47.70;;;;;;4980768;28;20081;-52
2021/08/13 12:53:55;;;;;;;1.48;1.20;;;29.30;47.60;;;;;;4974899;28;20598;-50
2021/08/13 12:56:23;;;;;;;1.27;1.17;;;29.30;47.60;;;;;;4967346;28;20039;-51
2021/08/13 12:59:09;;;;;;;1.77;1.10;;;29.30;47.60;;;;;;4982840;28;20066;-51
2021/08/13 13:01:37;;;;;;;0.70;0.70;;;29.40;47.50;;;;;;4985008;28;20783;-52
2021/08/13 13:04:07;;;;;;;0.85;0.85;;;29.40;47.50;;;;;;4971461;28;20045;-50